Time;durP1;ratioP1;P1;durP2;ratioP2;P2;SDS_P1;SDS_P2;PMS_P1;PMS_P2;Temp;Humidity;BMP_temperature;BMP_pressure;BME280_temperature;BME280_humidity;BME280_pressure;Samples;Min_cycle;Max_cycle;Signal;HPM_P1;HPM_P2
2022/08/21 00:01:55;;;;;;;;;3.00;3.00;;;;;26.97;59.38;97961.81;6210789;22;102061;-96
2022/08/21 00:04:24;;;;;;;;;3.00;3.00;;;;;26.94;59.14;97956.09;6231446;22;101460;-96
2022/08/21 00:06:56;;;;;;;;;3.00;3.00;;;;;26.92;59.25;97950.91;6258913;22;102025;-96
2022/08/21 00:09:24;;;;;;;;;5.00;4.33;;;;;26.97;59.29;97959.03;6203919;22;105225;-96
2022/08/21 00:11:53;;;;;;;;;3.33;3.33;;;;;26.98;59.69;97960.69;6207108;22;101981;-96
2022/08/21 00:14:23;;;;;;;;;3.33;3.00;;;;;26.97;59.11;97963.81;6207578;22;101579;-96
2022/08/21 00:16:58;;;;;;;;;4.33;3.33;;;;;26.97;59.08;97958.25;6213425;22;101728;-96
2022/08/21 00:19:26;;;;;;;;;4.33;4.00;;;;;27.01;59.60;97968.38;6207834;22;105296;-96
2022/08/21 00:21:56;;;;;;;;;3.00;3.00;;;;;26.96;59.45;97948.28;6234254;22;102045;-96
2022/08/21 00:24:24;;;;;;;;;2.00;2.00;;;;;27.04;59.42;97953.03;6206138;22;101499;-96
2022/08/21 00:26:52;;;;;;;;;3.00;3.00;;;;;27.01;59.16;97965.59;6258736;22;101952;-96
2022/08/21 00:29:20;;;;;;;;;3.33;2.67;;;;;27.00;59.61;97947.31;6208055;22;105254;-96
2022/08/21 00:31:53;;;;;;;;;5.00;4.00;;;;;26.96;59.09;97939.97;6211899;22;101673;-96
2022/08/21 00:34:22;;;;;;;;;3.33;3.33;;;;;26.93;59.04;97932.25;6236970;22;101993;-96
2022/08/21 00:36:50;;;;;;;;;4.33;3.33;;;;;26.92;59.20;97936.19;6235460;22;101514;-96
2022/08/21 00:39:17;;;;;;;;;3.33;3.33;;;;;26.94;59.17;97931.13;6231378;22;102171;-96
2022/08/21 00:41:45;;;;;;;;;2.33;2.33;;;;;26.92;59.13;97925.09;6234363;22;101807;-96
2022/08/21 00:44:15;;;;;;;;;4.00;4.00;;;;;26.87;59.18;97917.75;6234232;22;101420;-96
2022/08/21 00:46:43;;;;;;;;;3.00;2.33;;;;;26.93;59.25;97929.50;6260348;22;102012;-96
2022/08/21 00:49:12;;;;;;;;;2.67;2.67;;;;;26.89;59.14;97925.72;6206995;22;105998;-96
2022/08/21 00:51:53;;;;;;;;;3.00;3.00;;;;;26.86;59.37;97924.44;6259480;22;101998;-96
2022/08/21 00:54:22;;;;;;;;;3.00;3.00;;;;;26.89;59.72;97928.50;6260586;22;102076;-96
2022/08/21 00:56:55;;;;;;;;;3.33;3.00;;;;;26.92;59.53;97925.94;6261435;22;101974;-96
2022/08/21 00:59:26;;;;;;;;;3.00;3.00;;;;;26.92;59.55;97920.38;6234461;22;103646;-96
2022/08/21 01:01:55;;;;;;;;;1.33;1.33;;;;;26.96;59.50;97917.75;6232831;22;101946;-96
2022/08/21 01:04:23;;;;;;;;;3.67;3.67;;;;;26.95;59.38;97905.03;6235344;22;101693;-96
2022/08/21 01:06:52;;;;;;;;;2.00;2.00;;;;;26.97;59.29;97905.53;6210822;22;101894;-96
2022/08/21 01:09:20;;;;;;;;;4.67;4.00;;;;;26.97;59.61;97894.44;6234713;22;102290;-96
2022/08/21 01:11:48;;;;;;;;;4.00;3.00;;;;;27.02;59.54;97908.94;6207924;22;101845;-96
2022/08/21 01:14:19;;;;;;;;;2.67;2.67;;;;;26.97;59.66;97905.53;6208248;22;101909;-96
2022/08/21 01:16:48;;;;;;;;;2.33;2.33;;;;;26.94;59.36;97897.84;6234522;22;101957;-96
2022/08/21 01:19:17;;;;;;;;;3.33;3.33;;;;;26.93;59.40;97887.88;6232017;22;104441;-96
2022/08/21 01:21:46;;;;;;;;;6.00;5.00;;;;;26.91;59.50;97887.38;6230984;22;101887;-96
2022/08/21 01:24:13;;;;;;;;;3.00;3.00;;;;;26.91;59.00;97887.38;6231999;22;101686;-96
2022/08/21 01:26:42;;;;;;;;;3.33;3.00;;;;;26.92;59.41;97892.63;6235608;22;102185;-96
2022/08/21 01:29:30;;;;;;;;;3.00;3.00;;;;;26.94;59.41;97889.50;6232512;22;103769;-96
2022/08/21 01:32:00;;;;;;;;;4.00;4.00;;;;;26.93;59.55;97885.91;6260830;22;101646;-96
2022/08/21 01:34:29;;;;;;;;;3.67;2.67;;;;;26.90;59.23;97871.88;6235400;22;101409;-96
2022/08/21 01:36:57;;;;;;;;;3.67;3.00;;;;;26.88;59.39;97874.19;6235166;22;101649;-96
2022/08/21 01:39:26;;;;;;;;;3.00;3.00;;;;;26.88;59.27;97877.75;6230542;22;102967;-96
2022/08/21 01:41:54;;;;;;;;;3.00;3.00;;;;;26.88;59.85;97874.19;6231237;22;101813;-96
2022/08/21 01:44:48;;;;;;;;;1.33;1.33;;;;;26.96;59.32;97884.47;6258564;22;101942;-96
2022/08/21 01:47:21;;;;;;;;;3.00;3.00;;;;;26.88;59.70;97863.09;6259427;22;101951;-96
2022/08/21 01:49:51;;;;;;;;;4.00;4.00;;;;;26.91;59.67;97860.47;6206787;22;103345;-96
2022/08/21 01:52:20;;;;;;;;;2.33;2.33;;;;;26.91;59.57;97852.16;6206066;22;101679;-96
2022/08/21 01:54:48;;;;;;;;;5.00;5.00;;;;;26.97;59.42;97856.38;6231613;22;101926;-96
2022/08/21 01:57:21;;;;;;;;;2.00;2.00;;;;;26.93;59.27;97837.91;6210155;22;101512;-96
2022/08/21 01:59:52;;;;;;;;;2.33;2.33;;;;;26.92;59.54;97836.31;6231291;22;102264;-96
2022/08/21 02:02:20;;;;;;;;;3.00;3.00;;;;;26.93;59.28;97830.41;6231143;22;101508;-96
2022/08/21 02:04:48;;;;;;;;;4.00;3.00;;;;;26.91;59.55;97823.56;6231880;22;101907;-96
2022/08/21 02:07:18;;;;;;;;;2.33;2.33;;;;;26.92;59.40;97833.53;6207449;22;102007;-96
2022/08/21 02:09:46;;;;;;;;;2.67;2.67;;;;;26.90;59.36;97827.47;6231092;22;103219;-96
2022/08/21 02:12:15;;;;;;;;;4.00;3.00;;;;;26.91;59.41;97831.91;6255520;22;102172;-96
2022/08/21 02:14:50;;;;;;;;;3.00;3.00;;;;;26.88;59.03;97838.13;6208858;22;101924;-96
2022/08/21 02:17:18;;;;;;;;;3.00;3.00;;;;;26.90;59.11;97842.19;6233732;22;102017;-96
2022/08/21 02:19:47;;;;;;;;;2.33;2.00;;;;;26.90;59.74;97838.59;6231594;22;103249;-96
2022/08/21 02:22:15;;;;;;;;;5.00;4.00;;;;;26.83;59.33;97841.00;6230437;22;101951;-96
2022/08/21 02:24:43;;;;;;;;;2.00;2.00;;;;;26.82;59.38;97825.50;6230379;22;101934;-96
2022/08/21 02:27:21;;;;;;;;;3.00;3.00;;;;;26.88;59.61;97829.78;6235981;22;101925;-96
2022/08/21 02:29:54;;;;;;;;;2.00;2.00;;;;;26.89;59.77;97823.91;6253150;22;102002;-96
2022/08/21 02:32:23;;;;;;;;;2.00;2.00;;;;;26.94;59.43;97825.69;6234092;22;101471;-96
2022/08/21 02:34:51;;;;;;;;;3.00;3.00;;;;;26.95;59.65;97824.56;6231379;22;101932;-96
2022/08/21 02:37:21;;;;;;;;;3.00;3.00;;;;;26.91;59.44;97806.94;6182814;22;101793;-96
2022/08/21 02:39:50;;;;;;;;;3.00;2.00;;;;;26.93;59.73;97804.63;6256772;22;102028;-96
2022/08/21 02:42:18;;;;;;;;;3.33;3.00;;;;;26.93;59.35;97811.00;6255887;22;101939;-96
2022/08/21 02:44:47;;;;;;;;;3.67;3.00;;;;;26.93;59.23;97805.44;6255675;22;101483;-96
2022/08/21 02:47:15;;;;;;;;;3.00;3.00;;;;;26.91;59.40;97806.94;6230907;22;101769;-96
2022/08/21 02:49:44;;;;;;;;;2.33;2.00;;;;;26.92;59.48;97814.13;6256289;22;103350;-96
2022/08/21 02:52:14;;;;;;;;;2.33;2.33;;;;;26.88;59.61;97824.25;6255171;22;101490;-96
2022/08/21 02:54:42;;;;;;;;;3.00;3.00;;;;;26.89;59.15;97823.06;6206152;22;101992;-96
2022/08/21 02:57:10;;;;;;;;;3.67;3.00;;;;;26.93;59.23;97824.06;6231523;22;101942;-96
2022/08/21 02:59:39;;;;;;;;;3.00;3.00;;;;;26.86;59.74;97832.88;6229333;22;105646;-96
2022/08/21 03:02:06;;;;;;;;;3.33;2.00;;;;;26.90;59.53;97833.03;6205147;22;101935;-96
2022/08/21 03:04:37;;;;;;;;;3.00;3.00;;;;;26.87;59.18;97833.69;6229315;22;101942;-96
2022/08/21 03:07:11;;;;;;;;;2.00;1.33;;;;;26.90;59.13;97833.03;6228322;22;101946;-96
2022/08/21 03:09:45;;;;;;;;;3.00;2.00;;;;;26.82;59.39;97819.94;6192938;22;102738;-96
2022/08/21 03:12:25;;;;;;;;;1.67;1.67;;;;;26.80;59.89;97816.66;6208742;22;101730;-96
2022/08/21 03:14:56;;;;;;;;;3.33;3.00;;;;;26.83;59.32;97824.38;6224359;22;101486;-96
2022/08/21 03:17:26;;;;;;;;;2.00;2.00;;;;;26.87;59.79;97828.16;6231612;22;102057;-96
2022/08/21 03:19:56;;;;;;;;;3.00;3.00;;;;;26.83;59.45;97827.13;6255479;22;102164;-96
2022/08/21 03:22:24;;;;;;;;;5.00;3.33;;;;;26.84;59.50;97828.75;6230879;22;101675;-96
2022/08/21 03:24:53;;;;;;;;;2.00;2.00;;;;;26.90;59.36;97844.13;6255128;22;101949;-96
2022/08/21 03:27:22;;;;;;;;;2.00;2.00;;;;;26.84;59.64;97843.44;6231036;22;102077;-96
2022/08/21 03:29:49;;;;;;;;;3.00;3.00;;;;;26.82;59.57;97842.97;6229012;22;102869;-96
2022/08/21 03:32:19;;;;;;;;;4.33;4.00;;;;;26.81;59.55;97840.50;6258042;22;102002;-96
2022/08/21 03:34:48;;;;;;;;;2.67;2.67;;;;;26.82;58.97;97858.78;6258290;22;101960;-96
2022/08/21 03:37:17;;;;;;;;;3.00;3.00;;;;;26.81;59.35;97857.16;6233780;22;101917;-96
2022/08/21 03:39:45;;;;;;;;;3.00;3.00;;;;;26.82;59.18;97858.78;6231137;22;103725;-96
2022/08/21 03:42:13;;;;;;;;;4.33;4.00;;;;;26.81;59.78;97857.16;6207795;22;101924;-96
2022/08/21 03:44:41;;;;;;;;;3.33;3.33;;;;;26.86;59.21;97860.63;6256315;22;102058;-96
2022/08/21 03:47:09;;;;;;;;;2.33;2.33;;;;;26.80;59.10;97859.09;6182087;22;101777;-96
2022/08/21 03:49:38;;;;;;;;;2.00;2.00;;;;;26.84;59.21;97870.38;6206411;22;103310;-96
2022/08/21 03:52:06;;;;;;;;;2.67;2.67;;;;;26.81;59.28;97868.25;6257533;22;101941;-96
2022/08/21 03:54:33;;;;;;;;;3.00;2.33;;;;;26.78;59.10;97875.28;6233384;22;101745;-96
2022/08/21 03:57:01;;;;;;;;;4.00;3.00;;;;;26.81;59.25;97868.25;6211485;22;102212;-96
2022/08/21 03:59:29;;;;;;;;;2.00;2.00;;;;;26.80;59.59;97867.44;6236494;22;102072;-96
2022/08/21 04:01:59;;;;;;;;;3.00;2.67;;;;;26.85;59.39;97863.69;6233506;22;102708;-96
2022/08/21 04:04:28;;;;;;;;;2.00;2.00;;;;;26.86;59.32;97876.44;6207760;22;101510;-96
2022/08/21 04:06:57;;;;;;;;;3.67;3.00;;;;;26.84;59.37;97867.59;6233281;22;101654;-96
2022/08/21 04:09:26;;;;;;;;;3.00;3.00;;;;;26.81;59.05;97863.50;6190476;22;102026;-96
2022/08/21 04:11:55;;;;;;;;;2.00;2.00;;;;;26.89;59.43;97879.38;6257801;22;101883;-96
2022/08/21 04:14:23;;;;;;;;;2.67;2.33;;;;;26.86;59.63;97868.13;6255919;22;101935;-96
2022/08/21 04:16:53;;;;;;;;;3.00;3.00;;;;;26.88;59.36;97863.88;6183763;22;101940;-96
2022/08/21 04:19:23;;;;;;;;;2.33;2.00;;;;;26.83;59.32;97865.97;6231018;22;103987;-96
2022/08/21 04:21:51;;;;;;;;;3.00;3.00;;;;;26.81;59.42;97855.19;6232639;22;101890;-96
2022/08/21 04:24:19;;;;;;;;;3.33;3.33;;;;;26.82;59.31;97861.56;6229649;22;101660;-96
2022/08/21 04:26:47;;;;;;;;;2.67;2.67;;;;;26.83;59.56;97860.44;6258584;22;102287;-96
2022/08/21 04:29:19;;;;;;;;;3.00;3.00;;;;;26.80;59.05;97856.31;6232835;22;102171;-96
2022/08/21 04:31:48;;;;;;;;;2.00;2.00;;;;;26.79;58.90;97865.00;6234148;22;101927;-96
2022/08/21 04:34:16;;;;;;;;;3.00;2.33;;;;;26.86;59.31;97876.44;6261442;22;101170;-96
2022/08/21 04:36:44;;;;;;;;;4.00;4.00;;;;;26.84;59.61;97873.13;6231417;22;101923;-96
2022/08/21 04:39:13;;;;;;;;;3.00;3.00;;;;;26.80;59.05;97866.59;6255308;22;105868;-96
2022/08/21 04:41:41;;;;;;;;;1.67;1.67;;;;;26.79;59.00;97868.59;6258448;22;101923;-96
2022/08/21 04:44:09;;;;;;;;;4.00;3.00;;;;;26.79;59.45;97865.00;6180389;22;101838;-96
2022/08/21 04:46:38;;;;;;;;;3.67;3.00;;;;;26.87;59.31;97884.47;6232779;22;102132;-96
2022/08/21 04:49:10;;;;;;;;;2.00;2.00;;;;;26.81;59.31;97862.69;6231048;22;101950;-96
2022/08/21 04:51:39;;;;;;;;;3.00;2.67;;;;;26.83;59.56;97874.31;6225509;22;102760;-96
2022/08/21 04:54:10;;;;;;;;;2.00;2.00;;;;;26.85;59.43;97863.69;6231098;22;101966;-96
2022/08/21 04:56:48;;;;;;;;;3.33;2.33;;;;;26.86;59.04;97865.34;6258065;22;102093;-96
2022/08/21 04:59:22;;;;;;;;;3.67;3.67;;;;;26.87;59.45;97872.53;6256525;22;102032;-96
2022/08/21 05:01:50;;;;;;;;;2.33;2.33;;;;;26.89;59.18;97876.59;6230775;22;102170;-96
2022/08/21 05:04:20;;;;;;;;;3.00;3.00;;;;;26.89;59.14;97875.78;6255002;22;101552;-96
2022/08/21 05:06:48;;;;;;;;;3.00;3.00;;;;;26.87;59.14;97869.75;6260105;22;102108;-96
2022/08/21 05:09:17;;;;;;;;;3.00;3.00;;;;;26.87;58.89;97864.22;6231572;22;102155;-96
2022/08/21 05:11:46;;;;;;;;;3.00;3.00;;;;;26.89;59.22;97875.78;6199480;22;102069;-96
2022/08/21 05:14:15;;;;;;;;;3.33;2.33;;;;;26.88;59.23;97879.72;6201481;22;101901;-96
2022/08/21 05:16:44;;;;;;;;;3.00;3.00;;;;;26.93;59.31;97885.09;6227255;22;102164;-96
2022/08/21 05:19:12;;;;;;;;;2.33;2.33;;;;;26.91;58.93;97892.94;6150698;22;103458;-96
2022/08/21 05:21:43;;;;;;;;;3.33;3.00;;;;;26.92;59.45;97892.63;6201022;22;101786;-96
2022/08/21 05:24:12;;;;;;;;;3.33;3.33;;;;;26.92;59.12;97900.13;6200383;22;101649;-96
2022/08/21 05:26:42;;;;;;;;;3.67;3.00;;;;;26.85;59.04;97888.66;6202833;22;102155;-96
2022/08/21 05:29:16;;;;;;;;;2.00;2.00;;;;;26.85;58.98;97889.50;6202789;22;102707;-96
2022/08/21 05:31:45;;;;;;;;;3.00;3.00;;;;;26.89;59.04;97897.97;6230311;22;101969;-96
2022/08/21 05:34:14;;;;;;;;;3.00;2.00;;;;;26.91;58.71;97906.81;6177001;22;101963;-96
2022/08/21 05:36:43;;;;;;;;;1.67;1.67;;;;;26.93;58.92;97904.53;6226976;22;101930;-96
2022/08/21 05:39:12;;;;;;;;;3.67;3.00;;;;;26.95;58.74;97900.28;6199320;22;105325;-96
2022/08/21 05:41:40;;;;;;;;;3.33;3.33;;;;;26.89;58.96;97893.25;6200566;22;102205;-96
2022/08/21 05:44:09;;;;;;;;;2.33;2.33;;;;;26.95;59.06;97897.53;6225027;22;101799;-96
2022/08/21 05:46:37;;;;;;;;;4.00;3.00;;;;;26.92;58.80;97891.81;6176501;22;101981;-96
2022/08/21 05:49:05;;;;;;;;;3.33;3.00;;;;;26.89;58.92;97893.25;6200167;22;104106;-96
2022/08/21 05:51:34;;;;;;;;;2.00;2.00;;;;;26.90;59.10;97881.03;6200176;22;101808;-96
2022/08/21 05:54:03;;;;;;;;;3.67;3.67;;;;;26.92;58.98;97891.81;6199886;22;102024;-96
2022/08/21 05:56:32;;;;;;;;;3.00;3.00;;;;;26.92;58.96;97891.81;6176336;22;101807;-96
2022/08/21 05:59:01;;;;;;;;;3.33;3.33;;;;;26.94;58.95;97895.06;6225568;22;102017;-96
2022/08/21 06:01:35;;;;;;;;;4.33;4.00;;;;;26.92;58.79;97877.94;6224174;22;101937;-96
2022/08/21 06:04:04;;;;;;;;;2.00;2.00;;;;;26.91;58.94;97890.16;6151525;22;102368;-96
2022/08/21 06:06:33;;;;;;;;;3.00;3.00;;;;;26.92;59.04;97889.84;6175516;22;101983;-96
2022/08/21 06:09:01;;;;;;;;;5.00;4.00;;;;;26.94;58.88;97892.28;6173955;22;104430;-96
2022/08/21 06:11:31;;;;;;;;;1.67;1.67;;;;;26.87;58.86;97892.78;6206286;22;102038;-96
2022/08/21 06:14:00;;;;;;;;;3.00;3.00;;;;;26.95;58.93;97905.03;6288035;22;102110;-96
2022/08/21 06:16:28;;;;;;;;;2.00;2.00;;;;;26.95;59.12;97905.84;6212649;22;102265;-96
2022/08/21 06:18:57;;;;;;;;;3.00;3.00;;;;;26.96;58.83;97903.88;6261848;22;102079;-96
2022/08/21 06:21:28;;;;;;;;;2.00;2.00;;;;;26.93;58.55;97893.41;6236652;22;101989;-96
2022/08/21 06:23:57;;;;;;;;;3.00;3.00;;;;;26.95;58.92;97899.47;6261881;22;101949;-96
2022/08/21 06:26:27;;;;;;;;;2.33;2.33;;;;;26.96;58.49;97899.16;6238361;22;102074;-96
2022/08/21 06:28:55;;;;;;;;;2.00;2.00;;;;;26.94;58.79;97895.88;6211038;22;102444;-96
2022/08/21 06:31:24;;;;;;;;;2.67;2.33;;;;;26.94;58.43;97895.06;6212526;22;101990;-96
2022/08/21 06:33:52;;;;;;;;;3.00;3.00;;;;;26.96;58.63;97898.34;6238060;22;101679;-96
2022/08/21 06:36:20;;;;;;;;;2.00;2.00;;;;;26.99;58.47;97906.00;6236153;22;101938;-96
2022/08/21 06:38:49;;;;;;;;;4.33;4.00;;;;;26.96;58.39;97909.44;6233928;22;104168;-96
2022/08/21 06:41:42;;;;;;;;;4.00;3.00;;;;;26.99;58.51;97914.34;6212107;22;101831;-96
2022/08/21 06:44:10;;;;;;;;;2.67;2.67;;;;;26.95;58.15;97913.34;6261986;22;102032;-96
2022/08/21 06:46:39;;;;;;;;;4.67;4.67;;;;;26.97;58.65;97919.41;6211398;22;101842;-96
2022/08/21 06:49:07;;;;;;;;;3.00;2.33;;;;;26.91;58.35;97913.19;6260993;22;102066;-96
2022/08/21 06:51:47;;;;;;;;;3.33;3.33;;;;;26.95;58.37;97922.50;6240942;22;101906;-96
2022/08/21 06:54:19;;;;;;;;;2.00;2.00;;;;;26.90;58.55;97916.28;6238562;22;101990;-96
2022/08/21 06:56:48;;;;;;;;;3.00;3.00;;;;;26.87;58.49;97916.94;6237161;22;101758;-96
2022/08/21 06:59:16;;;;;;;;;3.67;3.67;;;;;26.89;58.01;97914.63;6236190;22;104220;-96
2022/08/21 07:01:46;;;;;;;;;2.33;2.33;;;;;26.93;58.32;97924.75;6236737;22;101662;-96
2022/08/21 07:04:14;;;;;;;;;4.67;4.00;;;;;26.92;58.26;97916.78;6235789;22;101987;-96
2022/08/21 07:06:44;;;;;;;;;3.00;3.00;;;;;26.97;58.83;97925.75;6237973;22;102129;-96
2022/08/21 07:09:13;;;;;;;;;3.00;3.00;;;;;26.95;58.39;97924.44;6261013;22;103996;-96
2022/08/21 07:11:48;;;;;;;;;3.00;2.33;;;;;27.00;58.78;97935.41;6238382;22;101948;-96
2022/08/21 07:14:15;;;;;;;;;1.00;1.00;;;;;26.93;58.52;97926.72;6208863;22;101920;-96
2022/08/21 07:16:47;;;;;;;;;3.00;3.00;;;;;26.91;58.50;97926.25;6263421;22;101865;-96
2022/08/21 07:19:15;;;;;;;;;1.67;1.67;;;;;26.90;58.73;97921.81;6259754;22;105490;-96
2022/08/21 07:21:44;;;;;;;;;3.00;3.00;;;;;26.91;58.95;97926.25;6235436;22;102081;-96
2022/08/21 07:24:15;;;;;;;;;2.67;2.00;;;;;26.89;58.79;97931.28;6235905;22;101934;-96
2022/08/21 07:26:44;;;;;;;;;2.67;2.67;;;;;26.86;59.01;97929.16;6239085;22;101871;-96
2022/08/21 07:29:12;;;;;;;;;4.00;3.00;;;;;26.89;59.28;97945.97;6212594;22;104793;-96
2022/08/21 07:31:43;;;;;;;;;5.00;4.00;;;;;26.86;59.31;97943.03;6238369;22;101893;-96
2022/08/21 07:34:10;;;;;;;;;4.00;3.00;;;;;26.87;59.01;97942.72;6241233;22;101799;-96
2022/08/21 07:36:39;;;;;;;;;3.00;3.00;;;;;26.91;59.30;97949.25;6236743;22;102472;-96
2022/08/21 07:39:08;;;;;;;;;3.67;3.67;;;;;26.88;58.97;97949.09;6261545;22;104481;-96
2022/08/21 07:41:37;;;;;;;;;4.00;4.00;;;;;26.85;58.88;97949.69;6210784;22;101688;-96
2022/08/21 07:44:06;;;;;;;;;3.33;3.33;;;;;26.85;58.90;97949.69;6236384;22;101931;-96
2022/08/21 07:46:41;;;;;;;;;2.00;2.00;;;;;26.87;59.04;97950.22;6239578;22;101929;-96
2022/08/21 07:49:09;;;;;;;;;2.33;2.33;;;;;26.90;59.04;97961.50;6235674;22;102679;-96
2022/08/21 07:51:38;;;;;;;;;4.00;4.00;;;;;26.83;59.26;97944.47;6211996;22;101929;-96
2022/08/21 07:54:08;;;;;;;;;2.33;2.33;;;;;26.80;58.88;97933.19;6262901;22;102290;-96
2022/08/21 07:56:44;;;;;;;;;3.00;3.00;;;;;26.83;59.08;97943.66;6217807;22;102050;-96
2022/08/21 07:59:12;;;;;;;;;3.00;3.00;;;;;26.81;59.42;97943.97;6234733;22;104340;-96
2022/08/21 08:01:41;;;;;;;;;3.67;3.00;;;;;26.80;59.38;97939.56;6263747;22;101975;-96
2022/08/21 08:04:09;;;;;;;;;3.33;3.00;;;;;26.79;59.58;97942.66;6239180;22;102051;-96
2022/08/21 08:06:40;;;;;;;;;3.00;2.25;;;;;26.78;59.45;97939.06;6243881;22;101944;-96
2022/08/21 08:09:09;;;;;;;;;3.00;3.00;;;;;26.78;59.40;97943.81;6214669;22;102940;-96
2022/08/21 08:11:45;;;;;;;;;5.67;4.00;;;;;26.78;59.60;97936.31;6242119;22;101740;-96
2022/08/21 08:14:16;;;;;;;;;4.00;3.00;;;;;26.76;59.56;97938.56;6243413;22;102000;-96
2022/08/21 08:17:23;;;;;;;;;2.00;2.00;;;;;26.82;59.67;97942.84;6224423;22;102384;-96
2022/08/21 08:19:57;;;;;;;;;4.00;4.00;;;;;26.75;59.92;97938.91;6244240;22;103064;-96
2022/08/21 08:22:39;;;;;;;;;2.00;2.00;;;;;26.77;59.19;97940.22;6273183;22;101901;-96
2022/08/21 08:26:02;;;;;;;;;4.00;4.00;;;;;26.81;59.45;97941.19;6274285;22;101775;-96
2022/08/21 08:29:12;;;;;;;;;3.00;2.00;;;;;26.82;59.38;97940.06;6300344;22;101800;-96
2022/08/21 08:32:04;;;;;;;;;2.67;2.67;;;;;26.76;59.32;97937.75;6298046;22;103611;-96
2022/08/21 08:34:40;;;;;;;;;3.00;3.00;;;;;26.73;58.01;97928.13;6224590;22;101900;-96
2022/08/21 08:37:31;;;;;;;;;1.00;1.00;;;;;26.49;55.84;97934.06;6259354;22;102133;-96
2022/08/21 08:40:30;;;;;;;;;1.67;1.67;;;;;26.34;54.67;97920.66;6282333;22;101225;-96
2022/08/21 08:43:13;;;;;;;;;0.00;0.00;;;;;26.34;55.41;97923.44;6275721;22;104416;-96
2022/08/21 08:45:50;;;;;;;;;0.00;0.00;;;;;26.33;55.59;97921.78;6250362;22;101670;-96
2022/08/21 08:49:14;;;;;;;;;0.00;0.00;;;;;26.39;55.42;97928.81;6252677;22;101884;-96
2022/08/21 08:52:35;;;;;;;;;0.00;0.00;;;;;26.36;55.83;97923.91;6296703;22;101287;-96
2022/08/21 08:56:14;;;;;;;;;0.00;0.00;;;;;26.34;55.48;97917.88;6300218;22;103965;-96
2022/08/21 08:58:49;;;;;;;;;0.00;0.00;;;;;26.26;55.53;97906.75;6297656;22;102036;-96
2022/08/21 09:01:35;;;;;;;;;0.00;0.00;;;;;26.26;55.25;97906.75;6251295;22;102858;-96
2022/08/21 09:04:27;;;;;;;;;0.00;0.00;;;;;26.22;55.47;97912.13;6252863;22;101243;-96
2022/08/21 09:07:39;;;;;;;;;0.00;0.00;;;;;26.24;54.66;97914.56;6253936;22;102287;-96
2022/08/21 09:14:04;;;;;;;;;0.00;0.00;;;;;26.23;54.03;97916.53;6271563;22;102014;-96
2022/08/21 09:17:19;;;;;;;;;0.00;0.00;;;;;26.28;54.22;97923.88;6268362;22;102082;-96
2022/08/21 09:20:32;;;;;;;;;0.00;0.00;;;;;26.24;54.40;97922.88;6269982;22;104043;-96
2022/08/21 09:23:39;;;;;;;;;0.00;0.00;;;;;26.21;54.94;97921.56;6268645;22;101175;-96
2022/08/21 09:26:30;;;;;;;;;0.00;0.00;;;;;26.30;54.07;97922.41;6267330;22;101340;-96
2022/08/21 16:51:32;;;;;;;;;4.33;4.00;;;;;24.43;59.00;98067.78;6165232;22;102896;-85
2022/08/21 16:54:17;;;;;;;;;2.67;2.67;;;;;24.42;59.34;98060.63;6006950;22;102331;-85
2022/08/21 16:57:02;;;;;;;;;3.00;3.00;;;;;24.42;59.22;98052.31;6036865;22;107596;-86
2022/08/21 16:59:58;;;;;;;;;4.67;4.67;;;;;24.43;59.23;98048.44;6087555;22;102548;-85
2022/08/21 17:02:52;;;;;;;;;2.67;2.67;;;;;24.46;59.41;98047.81;6051064;22;102680;-84
2022/08/21 17:05:38;;;;;;;;;3.33;3.33;;;;;24.48;59.13;98042.00;6130361;22;102553;-85
2022/08/21 17:08:34;;;;;;;;;3.67;3.67;;;;;24.48;59.36;98029.00;6032280;22;107490;-84
2022/08/21 17:11:41;;;;;;;;;3.00;3.00;;;;;24.51;58.84;98035.84;5939670;22;102506;-85
2022/08/21 17:14:50;;;;;;;;;3.00;3.00;;;;;24.53;59.42;98031.69;6085409;22;102400;-85
2022/08/21 17:17:42;;;;;;;;;3.67;3.00;;;;;24.57;59.45;98043.75;5967000;22;102710;-83
2022/08/21 17:20:41;;;;;;;;;4.67;3.00;;;;;24.45;57.72;98044.25;6098102;22;109419;-84
2022/08/21 17:23:33;;;;;;;;;3.67;3.00;;;;;24.44;58.33;98039.84;6082525;22;102221;-84
2022/08/21 17:26:22;;;;;;;;;3.00;3.00;;;;;24.46;59.16;98020.19;6048024;22;102505;-82
2022/08/21 17:29:14;;;;;;;;;2.67;2.67;;;;;24.42;57.94;98027.44;6089975;22;102839;-83
2022/08/21 17:31:58;;;;;;;;;3.33;3.00;;;;;24.44;58.06;98030.75;6166116;22;108886;-83
2022/08/21 17:34:31;;;;;;;;;3.00;3.00;;;;;24.45;58.67;98029.63;6078261;22;103986;-83
2022/08/21 17:36:59;;;;;;;;;3.00;3.00;;;;;24.52;58.49;98043.84;6111339;22;102423;-83
2022/08/21 17:39:26;;;;;;;;;5.00;4.00;;;;;24.51;58.90;98044.97;6065645;22;102580;-83
2022/08/21 17:41:53;;;;;;;;;4.00;3.00;;;;;24.51;58.69;98039.44;6063150;22;105312;-83
2022/08/21 17:44:24;;;;;;;;;5.00;3.67;;;;;24.53;59.34;98041.91;6092739;22;102192;-83
2022/08/21 17:46:51;;;;;;;;;2.00;2.00;;;;;24.56;58.97;98053.16;6164544;22;102288;-83
2022/08/21 17:49:20;;;;;;;;;3.00;3.00;;;;;24.58;58.85;98050.94;6041916;22;102526;-83
2022/08/21 17:51:52;;;;;;;;;3.00;3.00;;;;;24.62;58.96;98051.97;6017883;22;105129;-83
2022/08/21 17:54:19;;;;;;;;;2.00;2.00;;;;;24.58;59.29;98039.06;5970404;22;102238;-83
2022/08/21 17:56:47;;;;;;;;;2.33;2.33;;;;;24.64;59.27;98044.16;5913706;22;102562;-83
2022/08/21 17:59:22;;;;;;;;;4.00;3.00;;;;;24.60;59.44;98034.03;5932263;23;102193;-83
2022/08/21 18:02:03;;;;;;;;;4.00;3.00;;;;;24.63;59.25;98031.47;5948124;22;105426;-82
2022/08/21 18:05:01;;;;;;;;;;;;;;;;;;;;;
2022/08/21 18:07:33;;;;;;;;;4.33;3.00;;;;;24.66;59.10;98046.63;6000473;22;102448;-82
2022/08/21 18:10:01;;;;;;;;;3.00;3.00;;;;;24.66;59.35;98047.47;5969979;22;102696;-84
2022/08/21 18:12:36;;;;;;;;;3.00;3.00;;;;;24.71;59.39;98057.59;6046609;22;109174;-81
2022/08/21 18:15:09;;;;;;;;;3.00;2.67;;;;;24.69;59.18;98057.06;6107411;22;102400;-82
2022/08/21 18:17:36;;;;;;;;;3.00;3.00;;;;;24.69;59.67;98049.59;6135126;22;105897;-82
2022/08/21 18:20:05;;;;;;;;;2.00;2.00;;;;;24.75;60.16;98056.69;6126568;22;102489;-82
2022/08/21 18:22:33;;;;;;;;;2.33;2.33;;;;;24.70;60.38;98058.72;6090532;22;104411;-81
2022/08/21 18:25:00;;;;;;;;;3.00;3.00;;;;;24.71;60.56;98083.31;6112477;22;102309;-81
2022/08/21 18:27:27;;;;;;;;;2.67;2.67;;;;;24.71;60.43;98088.84;6142571;22;102490;-81
2022/08/21 18:29:56;;;;;;;;;2.33;2.33;;;;;24.71;60.68;98094.38;6084227;22;102292;-82
2022/08/21 18:32:26;;;;;;;;;4.67;2.67;;;;;24.70;60.77;98092.72;6102246;22;103998;-82
2022/08/21 18:34:57;;;;;;;;;2.00;1.00;;;;;24.71;60.97;98083.31;6064314;22;102372;-82
2022/08/21 18:37:24;;;;;;;;;3.00;3.00;;;;;24.69;60.91;98068.97;6101094;22;102217;-82
2022/08/21 18:39:51;;;;;;;;;3.00;3.00;;;;;24.74;60.93;98070.81;6093591;22;105884;-81
2022/08/21 18:42:21;;;;;;;;;2.00;2.00;;;;;24.74;61.09;98065.28;6140702;22;103418;-81
2022/08/21 18:44:56;;;;;;;;;3.50;3.50;;;;;24.72;60.92;98062.81;6072334;22;102424;-79
2022/08/21 18:47:27;;;;;;;;;2.33;2.33;;;;;24.69;60.62;98054.31;6084403;22;102448;-81
2022/08/21 18:49:55;;;;;;;;;3.00;3.00;;;;;24.73;61.35;98069.97;6038984;22;102506;-80
2022/08/21 18:52:22;;;;;;;;;2.33;2.33;;;;;24.73;62.03;98069.97;6097435;22;104365;-81
2022/08/21 18:55:11;;;;;;;;;2.00;2.00;;;;;24.75;61.66;98077.97;6143826;22;102246;-81
2022/08/21 18:57:40;;;;;;;;;4.33;3.00;;;;;24.76;61.84;98082.41;6135831;22;102523;-81
2022/08/21 19:00:18;;;;;;;;;3.00;3.00;;;;;24.75;62.01;98087.09;6089473;22;102294;-81
2022/08/21 19:02:46;;;;;;;;;3.00;3.00;;;;;24.75;61.40;98080.75;6093242;22;108507;-81
2022/08/21 19:05:14;;;;;;;;;3.00;3.00;;;;;24.75;62.22;98072.44;6144760;22;105626;-80
2022/08/21 19:07:43;;;;;;;;;2.00;2.00;;;;;24.74;62.17;98055.03;6142138;22;102715;-81
2022/08/21 19:10:11;;;;;;;;;2.33;2.00;;;;;24.75;61.89;98059.44;6118576;22;102269;-81
2022/08/21 19:12:56;;;;;;;;;4.00;4.00;;;;;24.75;62.04;98051.16;6131173;22;108969;-81
2022/08/21 19:15:27;;;;;;;;;3.33;3.00;;;;;24.76;61.96;98041.75;6122979;22;102774;-80
2022/08/21 19:18:01;;;;;;;;;4.33;3.33;;;;;24.72;62.23;98037.91;6144000;22;102235;-81
2022/08/21 19:20:33;;;;;;;;;2.00;2.00;;;;;24.74;61.44;98035.69;6128903;22;102506;-81
2022/08/21 19:23:02;;;;;;;;;3.67;2.67;;;;;24.75;61.98;98045.63;6077532;22;102907;-81